Jomi — C6VK4 — position and weather

sailwx.info

Track history (hours):
 
Tides and Currents Weather Stations Pressure Air Temp Water Temp Dewpoint Dewpoint Depression Visibility Wind Speed Wind Dir Waves Ship Positions

Jomi

Last reported at 2016-May-26 21:33 UTC. Time now 2016-May-26 22:27 UTC.
Position N 57°32' E 010°44'.

Length 88 m; draft 4 m.

Type: Cargo ship. MMSI: 309701000.

Date/timePositionNaut miles runAvg speedWind from/ knotsBaromVisibWave heightAir tempDewpointWater temp
2016-May-26 21:33N 57°32' E 010°44'1010.1
2016-May-26 20:33N 57°42' E 010°45'9 9.5
2016-May-26 19:33N 57°52' E 010°42'10 9.7
2016-May-26 18:33N 58°01' E 010°35'1010.0
2016-May-26 17:33N 58°10' E 010°27'10 9.9
2016-May-26 16:33N 58°19' E 010°20'1110.6
2016-May-26 15:33N 58°29' E 010°12'1111.1
2016-May-26 14:32N 58°39' E 010°03'1111.0
2016-May-26 13:33N 58°49' E 009°55'21 2.6
2016-May-26 05:33N 59°08' E 009°38'0 0.0
2016-May-26 04:33N 59°08' E 009°38'0 0.0
2016-May-26 03:04N 59°08' E 009°38'0 0.0
2016-May-26 02:33N 59°08' E 009°38'0 0.0
2016-May-26 01:31N 59°08' E 009°38'0 0.0
2016-May-26 00:27N 59°08' E 009°38'0 0.0
2016-May-25 23:29N 59°08' E 009°38'0 0.0
2016-May-25 22:31N 59°08' E 009°38'0 0.0
2016-May-25 21:28N 59°08' E 009°38'1 1.4
2016-May-25 20:33N 59°09' E 009°39'3 2.5
2016-May-25 19:33N 59°11' E 009°37'0 0.0
2016-May-25 18:33N 59°11' E 009°37'0 0.0
2016-May-25 17:32N 59°11' E 009°37'0 0.0
2016-May-25 16:32N 59°11' E 009°37'0 0.0
2016-May-25 15:33N 59°11' E 009°38'0 0.0
2016-May-25 14:33N 59°11' E 009°37'0 0.0
2016-May-25 13:32N 59°11' E 009°37'0 0.0
2016-May-25 12:33N 59°11' E 009°37'0 0.0
2016-May-25 11:33N 59°11' E 009°37'0 0.0
2016-May-25 10:33N 59°11' E 009°37'0 0.0
2016-May-25 09:33N 59°11' E 009°37'0 0.0
2016-May-25 08:33N 59°11' E 009°37'0 0.0
2016-May-25 07:33N 59°11' E 009°37'0 0.0
2016-May-25 06:31N 59°11' E 009°37'0 0.0
2016-May-25 05:33N 59°11' E 009°37'0 0.0
2016-May-25 04:33N 59°11' E 009°37'0 0.0
2016-May-25 03:33N 59°11' E 009°37'0 0.0
2016-May-25 02:32N 59°11' E 009°37'0 0.0
2016-May-25 01:33N 59°11' E 009°37'0 0.0
2016-May-25 00:33N 59°11' E 009°37'0 0.0
2016-May-24 23:33N 59°11' E 009°37'0 0.0
2016-May-24 22:33N 59°11' E 009°37'0 0.0
2016-May-24 21:33N 59°11' E 009°37'0 0.0
2016-May-24 20:32N 59°11' E 009°37'0 0.0
2016-May-24 19:33N 59°11' E 009°37'0 0.0
2016-May-24 18:33N 59°11' E 009°37'0 0.0
2016-May-24 17:33N 59°11' E 009°37'0 0.0
2016-May-24 16:30N 59°11' E 009°37'0 0.0
2016-May-24 15:33N 59°11' E 009°37'0 0.0
2016-May-24 14:33N 59°11' E 009°37'0 0.0
2016-May-24 13:33N 59°11' E 009°37'8 6.0
2016-May-24 12:14N 59°03' E 009°40'5 8.1
2016-May-24 11:34N 58°59' E 009°47'1010.1
2016-May-24 10:33N 58°50' E 009°55'1010.1
2016-May-24 09:33N 58°42' E 010°05'10 9.6
2016-May-24 08:33N 58°33' E 010°14'9 9.2
2016-May-24 07:33N 58°25' E 010°22'9 9.5
2016-May-24 06:33N 58°17' E 010°31'1010.0
2016-May-24 05:33N 58°08' E 010°41'1010.3
2016-May-24 04:33N 57°60' E 010°51'1110.6
2016-May-24 03:33N 57°50' E 011°02'1010.4
2016-May-24 02:33N 57°42' E 011°12'1010.5
2016-May-24 01:33N 57°33' E 011°22'1010.4
2016-May-24 00:33N 57°23' E 011°29'1010.3
2016-May-23 23:33N 57°13' E 011°35'1010.4
2016-May-23 22:33N 57°03' E 011°42'1010.1
2016-May-23 21:33N 56°54' E 011°48'10 9.9
2016-May-23 20:33N 56°45' E 011°54'10 9.5
2016-May-23 19:33N 56°36' E 011°60'10 9.6
2016-May-23 18:33N 56°27' E 012°08'1010.3
2016-May-23 17:33N 56°19' E 012°19'1010.5
2016-May-23 16:33N 56°10' E 012°29'1010.1
2016-May-23 15:33N 56°02' E 012°40'9 9.4
2016-May-23 14:33N 55°53' E 012°44'10 9.8
2016-May-23 13:33N 55°43' E 012°41'9 9.3
2016-May-23 12:33N 55°34' E 012°42'10 9.7
2016-May-23 11:33N 55°24' E 012°41'1010.2
2016-May-23 10:33N 55°14' E 012°41'1110.3
2016-May-23 09:28N 55°08' E 012°57'1910.2
2016-May-23 07:33N 54°56' E 013°23'11 9.9
2016-May-23 06:28N 54°46' E 013°34'1210.6
2016-May-23 05:21N 54°36' E 013°43'36 9.5
2016-May-23 01:33N 54°05' E 014°14'9 9.5
2016-May-23 00:34N 53°56' E 014°17'8 7.5
2016-May-22 23:33N 53°48' E 014°20'10 9.7
2016-May-22 22:33N 53°41' E 014°31'9 8.9
2016-May-22 21:34N 53°33' E 014°37'4 3.9
2016-May-22 20:34N 53°29' E 014°37'0 0.0
2016-May-22 19:32N 53°29' E 014°37'0 0.0
2016-May-22 18:32N 53°29' E 014°37'0 0.0
2016-May-22 17:32N 53°29' E 014°37'0 0.0
2016-May-22 16:32N 53°29' E 014°37'0 0.0
2016-May-22 15:32N 53°29' E 014°37'0 0.0
2016-May-22 14:32N 53°29' E 014°37'0 0.0
2016-May-22 13:32N 53°29' E 014°37'0 0.0
2016-May-22 12:32N 53°29' E 014°37'0 0.0
2016-May-22 11:32N 53°29' E 014°37'0 0.0
2016-May-22 10:32N 53°29' E 014°37'0 0.0
2016-May-22 09:32N 53°29' E 014°37'0 0.0
2016-May-22 08:32N 53°29' E 014°37'0 0.0
2016-May-22 07:32N 53°29' E 014°37'0 0.0
2016-May-22 06:29N 53°29' E 014°37'0 0.0
2016-May-22 05:32N 53°29' E 014°37'0 0.0
2016-May-22 04:32N 53°29' E 014°37'0 0.0
2016-May-22 03:32N 53°29' E 014°37'0 0.0
2016-May-22 02:32N 53°29' E 014°37'0 0.0
2016-May-22 01:32N 53°29' E 014°37'0 0.0
2016-May-22 00:32N 53°29' E 014°37'0 0.0
2016-May-21 23:32N 53°29' E 014°37'0 0.0
2016-May-21 22:32N 53°29' E 014°37'0 0.0
2016-May-21 21:32N 53°29' E 014°37'0 0.0
2016-May-21 20:33N 53°29' E 014°37'8 8.0
2016-May-21 19:33N 53°37' E 014°35'10 9.7
2016-May-21 18:33N 53°45' E 014°25'9 9.5
2016-May-21 17:34N 53°53' E 014°16'9 9.1
2016-May-21 16:33N 54°02' E 014°14'9 8.9
2016-May-21 15:33N 54°10' E 014°09'43 8.3
2016-May-21 10:21N 54°53' E 013°58'6 8.1
2016-May-21 09:33N 54°59' E 014°01'8 7.9
2016-May-21 08:34N 55°06' E 014°07'8 8.2
2016-May-21 07:34N 55°12' E 014°17'8 8.4
2016-May-21 06:34N 55°19' E 014°26'9 8.5
2016-May-21 05:33N 55°25' E 014°36'8 8.4
2016-May-21 04:34N 55°30' E 014°48'9 8.7
2016-May-21 03:33N 55°35' E 015°01'9 8.6
2016-May-21 02:34N 55°40' E 015°13'3 0.1
2016-May-19 21:33N 55°39' E 015°18'10 9.7
2016-May-19 20:31N 55°33' E 015°04'9 9.5
2016-May-19 19:33N 55°27' E 014°51'1010.2
2016-May-19 18:33N 55°21' E 014°38'9 9.3
2016-May-19 17:33N 55°13' E 014°29'1010.0
2016-May-19 16:33N 55°06' E 014°41'0 0.3
2016-May-19 15:33N 55°06' E 014°41'0 0.0
2016-May-19 14:33N 55°06' E 014°41'0 0.0
2016-May-19 13:33N 55°06' E 014°41'0 0.0
2016-May-19 12:33N 55°06' E 014°41'0 0.0
2016-May-19 11:33N 55°06' E 014°41'0 0.0
2016-May-19 10:33N 55°06' E 014°41'0 0.0
2016-May-19 09:30N 55°06' E 014°41'0 0.0
2016-May-19 08:33N 55°06' E 014°41'0 0.0
2016-May-19 07:33N 55°06' E 014°41'0 0.2
2016-May-19 06:33N 55°06' E 014°41'6 6.4
2016-May-19 05:34N 55°04' E 014°30'3 3.2
2016-May-19 04:33N 55°06' E 014°26'1110.9
2016-May-19 03:33N 55°08' E 014°07'1010.4
2016-May-19 02:33N 55°10' E 013°49'1110.3
2016-May-19 01:32N 55°11' E 013°31'1010.0
2016-May-19 00:32N 55°13' E 013°14'1010.3
2016-May-18 23:34N 55°15' E 012°56'1110.9
2016-May-18 22:33N 55°18' E 012°38'1010.3
2016-May-18 21:33N 55°28' E 012°41'9 9.4
2016-May-18 20:33N 55°38' E 012°42'3 3.1
2016-May-18 19:31N 55°41' E 012°39'0 0.0
2016-May-18 18:31N 55°41' E 012°39'0 0.0
2016-May-18 17:31N 55°41' E 012°39'0 0.0
2016-May-18 16:31N 55°41' E 012°39'0 0.0
2016-May-18 15:31N 55°41' E 012°39'0 0.0
2016-May-18 14:31N 55°41' E 012°39'0 0.0
2016-May-18 13:31N 55°41' E 012°39'0 0.0
2016-May-18 12:31N 55°41' E 012°39'0 0.0
2016-May-18 11:31N 55°41' E 012°39'0 0.0
2016-May-18 10:31N 55°41' E 012°39'0 0.0
2016-May-18 09:31N 55°41' E 012°39'0 0.0
2016-May-18 08:31N 55°41' E 012°39'0 0.0
2016-May-18 07:31N 55°41' E 012°39'0 0.0
2016-May-18 06:31N 55°41' E 012°39'0 0.0
2016-May-18 05:31N 55°41' E 012°39'0 0.0
2016-May-18 04:31N 55°41' E 012°39'0 0.0
2016-May-18 03:31N 55°41' E 012°39'0 0.0
2016-May-18 02:31N 55°41' E 012°39'0 0.0
2016-May-18 01:31N 55°41' E 012°39'0 0.0
2016-May-18 00:34N 55°41' E 012°39'0 0.0
2016-May-17 23:33N 55°41' E 012°39'0 0.0
2016-May-17 22:33N 55°41' E 012°39'0 0.0
2016-May-17 21:33N 55°41' E 012°39'0 0.0
2016-May-17 20:33N 55°41' E 012°39'0 0.0
2016-May-17 19:33N 55°41' E 012°39'0 0.0
2016-May-17 18:33N 55°41' E 012°39'0 0.0
2016-May-17 17:33N 55°41' E 012°39'0 0.1
2016-May-17 16:33N 55°41' E 012°39'0 0.0
2016-May-17 15:33N 55°41' E 012°39'0 0.0
2016-May-17 14:33N 55°41' E 012°39'0 0.0
2016-May-17 13:33N 55°41' E 012°39'0 0.0
2016-May-17 12:33N 55°41' E 012°39'0 0.0
2016-May-17 11:33N 55°41' E 012°39'0 0.0
2016-May-17 10:33N 55°41' E 012°39'0 0.0
2016-May-17 09:33N 55°41' E 012°39'0 0.0
2016-May-17 08:33N 55°41' E 012°39'0 0.0
2016-May-17 07:33N 55°41' E 012°39'0 0.0
2016-May-17 06:33N 55°41' E 012°39'0 0.0
2016-May-17 05:33N 55°41' E 012°39'3 2.8
2016-May-17 04:33N 55°43' E 012°39'8 8.5
2016-May-17 03:33N 55°52' E 012°40'8 7.6
2016-May-17 02:33N 55°59' E 012°38'7 7.2
2016-May-17 01:33N 56°06' E 012°33'8 7.6
2016-May-17 00:33N 56°10' E 012°21'  
Track history (hours):
 
Tides and Currents Weather Stations Pressure Air Temp Water Temp Dewpoint Dewpoint Depression Visibility Wind Speed Wind Dir Waves Ship Positions

Jomi

Last reported at 2016-May-26 21:33 UTC. Time now 2016-May-26 22:27 UTC.
Position N 57°32' E 010°44'.

Length 88 m; draft 4 m.

Type: Cargo ship. MMSI: 309701000.

Date/timePositionNaut miles runAvg speedWind from/ knotsBaromVisibWave heightAir tempDewpointWater temp
2016-May-26 21:33N 57°32' E 010°44'1010.1
2016-May-26 20:33N 57°42' E 010°45'9 9.5
2016-May-26 19:33N 57°52' E 010°42'10 9.7
2016-May-26 18:33N 58°01' E 010°35'1010.0
2016-May-26 17:33N 58°10' E 010°27'10 9.9
2016-May-26 16:33N 58°19' E 010°20'1110.6
2016-May-26 15:33N 58°29' E 010°12'1111.1
2016-May-26 14:32N 58°39' E 010°03'1111.0
2016-May-26 13:33N 58°49' E 009°55'21 2.6
2016-May-26 05:33N 59°08' E 009°38'0 0.0
2016-May-26 04:33N 59°08' E 009°38'0 0.0
2016-May-26 03:04N 59°08' E 009°38'0 0.0
2016-May-26 02:33N 59°08' E 009°38'0 0.0
2016-May-26 01:31N 59°08' E 009°38'0 0.0
2016-May-26 00:27N 59°08' E 009°38'0 0.0
2016-May-25 23:29N 59°08' E 009°38'0 0.0
2016-May-25 22:31N 59°08' E 009°38'0 0.0
2016-May-25 21:28N 59°08' E 009°38'1 1.4
2016-May-25 20:33N 59°09' E 009°39'3 2.5
2016-May-25 19:33N 59°11' E 009°37'0 0.0
2016-May-25 18:33N 59°11' E 009°37'0 0.0
2016-May-25 17:32N 59°11' E 009°37'0 0.0
2016-May-25 16:32N 59°11' E 009°37'0 0.0
2016-May-25 15:33N 59°11' E 009°38'0 0.0
2016-May-25 14:33N 59°11' E 009°37'0 0.0
2016-May-25 13:32N 59°11' E 009°37'0 0.0
2016-May-25 12:33N 59°11' E 009°37'0 0.0
2016-May-25 11:33N 59°11' E 009°37'0 0.0
2016-May-25 10:33N 59°11' E 009°37'0 0.0
2016-May-25 09:33N 59°11' E 009°37'0 0.0
2016-May-25 08:33N 59°11' E 009°37'0 0.0
2016-May-25 07:33N 59°11' E 009°37'0 0.0
2016-May-25 06:31N 59°11' E 009°37'0 0.0
2016-May-25 05:33N 59°11' E 009°37'0 0.0
2016-May-25 04:33N 59°11' E 009°37'0 0.0
2016-May-25 03:33N 59°11' E 009°37'0 0.0
2016-May-25 02:32N 59°11' E 009°37'0 0.0
2016-May-25 01:33N 59°11' E 009°37'0 0.0
2016-May-25 00:33N 59°11' E 009°37'0 0.0
2016-May-24 23:33N 59°11' E 009°37'0 0.0
2016-May-24 22:33N 59°11' E 009°37'0 0.0
2016-May-24 21:33N 59°11' E 009°37'0 0.0
2016-May-24 20:32N 59°11' E 009°37'0 0.0
2016-May-24 19:33N 59°11' E 009°37'0 0.0
2016-May-24 18:33N 59°11' E 009°37'0 0.0
2016-May-24 17:33N 59°11' E 009°37'0 0.0
2016-May-24 16:30N 59°11' E 009°37'0 0.0
2016-May-24 15:33N 59°11' E 009°37'0 0.0
2016-May-24 14:33N 59°11' E 009°37'0 0.0
2016-May-24 13:33N 59°11' E 009°37'8 6.0
2016-May-24 12:14N 59°03' E 009°40'5 8.1
2016-May-24 11:34N 58°59' E 009°47'1010.1
2016-May-24 10:33N 58°50' E 009°55'1010.1
2016-May-24 09:33N 58°42' E 010°05'10 9.6
2016-May-24 08:33N 58°33' E 010°14'9 9.2
2016-May-24 07:33N 58°25' E 010°22'9 9.5
2016-May-24 06:33N 58°17' E 010°31'1010.0
2016-May-24 05:33N 58°08' E 010°41'1010.3
2016-May-24 04:33N 57°60' E 010°51'1110.6
2016-May-24 03:33N 57°50' E 011°02'1010.4
2016-May-24 02:33N 57°42' E 011°12'1010.5
2016-May-24 01:33N 57°33' E 011°22'1010.4
2016-May-24 00:33N 57°23' E 011°29'1010.3
2016-May-23 23:33N 57°13' E 011°35'1010.4
2016-May-23 22:33N 57°03' E 011°42'1010.1
2016-May-23 21:33N 56°54' E 011°48'10 9.9
2016-May-23 20:33N 56°45' E 011°54'10 9.5
2016-May-23 19:33N 56°36' E 011°60'10 9.6
2016-May-23 18:33N 56°27' E 012°08'1010.3
2016-May-23 17:33N 56°19' E 012°19'1010.5
2016-May-23 16:33N 56°10' E 012°29'1010.1
2016-May-23 15:33N 56°02' E 012°40'9 9.4
2016-May-23 14:33N 55°53' E 012°44'10 9.8
2016-May-23 13:33N 55°43' E 012°41'9 9.3
2016-May-23 12:33N 55°34' E 012°42'10 9.7
2016-May-23 11:33N 55°24' E 012°41'1010.2
2016-May-23 10:33N 55°14' E 012°41'1110.3
2016-May-23 09:28N 55°08' E 012°57'1910.2
2016-May-23 07:33N 54°56' E 013°23'11 9.9
2016-May-23 06:28N 54°46' E 013°34'1210.6
2016-May-23 05:21N 54°36' E 013°43'36 9.5
2016-May-23 01:33N 54°05' E 014°14'9 9.5
2016-May-23 00:34N 53°56' E 014°17'8 7.5
2016-May-22 23:33N 53°48' E 014°20'10 9.7
2016-May-22 22:33N 53°41' E 014°31'9 8.9
2016-May-22 21:34N 53°33' E 014°37'4 3.9
2016-May-22 20:34N 53°29' E 014°37'0 0.0
2016-May-22 19:32N 53°29' E 014°37'0 0.0
2016-May-22 18:32N 53°29' E 014°37'0 0.0
2016-May-22 17:32N 53°29' E 014°37'0 0.0
2016-May-22 16:32N 53°29' E 014°37'0 0.0
2016-May-22 15:32N 53°29' E 014°37'0 0.0
2016-May-22 14:32N 53°29' E 014°37'0 0.0
2016-May-22 13:32N 53°29' E 014°37'0 0.0
2016-May-22 12:32N 53°29' E 014°37'0 0.0
2016-May-22 11:32N 53°29' E 014°37'0 0.0
2016-May-22 10:32N 53°29' E 014°37'0 0.0
2016-May-22 09:32N 53°29' E 014°37'0 0.0
2016-May-22 08:32N 53°29' E 014°37'0 0.0
2016-May-22 07:32N 53°29' E 014°37'0 0.0
2016-May-22 06:29N 53°29' E 014°37'0 0.0
2016-May-22 05:32N 53°29' E 014°37'0 0.0
2016-May-22 04:32N 53°29' E 014°37'0 0.0
2016-May-22 03:32N 53°29' E 014°37'0 0.0
2016-May-22 02:32N 53°29' E 014°37'0 0.0
2016-May-22 01:32N 53°29' E 014°37'0 0.0
2016-May-22 00:32N 53°29' E 014°37'0 0.0
2016-May-21 23:32N 53°29' E 014°37'0 0.0
2016-May-21 22:32N 53°29' E 014°37'0 0.0
2016-May-21 21:32N 53°29' E 014°37'0 0.0
2016-May-21 20:33N 53°29' E 014°37'8 8.0
2016-May-21 19:33N 53°37' E 014°35'10 9.7
2016-May-21 18:33N 53°45' E 014°25'9 9.5
2016-May-21 17:34N 53°53' E 014°16'9 9.1
2016-May-21 16:33N 54°02' E 014°14'9 8.9
2016-May-21 15:33N 54°10' E 014°09'43 8.3
2016-May-21 10:21N 54°53' E 013°58'6 8.1
2016-May-21 09:33N 54°59' E 014°01'8 7.9
2016-May-21 08:34N 55°06' E 014°07'8 8.2
2016-May-21 07:34N 55°12' E 014°17'8 8.4
2016-May-21 06:34N 55°19' E 014°26'9 8.5
2016-May-21 05:33N 55°25' E 014°36'8 8.4
2016-May-21 04:34N 55°30' E 014°48'9 8.7
2016-May-21 03:33N 55°35' E 015°01'9 8.6
2016-May-21 02:34N 55°40' E 015°13'3 0.1
2016-May-19 21:33N 55°39' E 015°18'10 9.7
2016-May-19 20:31N 55°33' E 015°04'9 9.5
2016-May-19 19:33N 55°27' E 014°51'1010.2
2016-May-19 18:33N 55°21' E 014°38'9 9.3
2016-May-19 17:33N 55°13' E 014°29'1010.0
2016-May-19 16:33N 55°06' E 014°41'0 0.3
2016-May-19 15:33N 55°06' E 014°41'0 0.0
2016-May-19 14:33N 55°06' E 014°41'0 0.0
2016-May-19 13:33N 55°06' E 014°41'0 0.0
2016-May-19 12:33N 55°06' E 014°41'0 0.0
2016-May-19 11:33N 55°06' E 014°41'0 0.0
2016-May-19 10:33N 55°06' E 014°41'0 0.0
2016-May-19 09:30N 55°06' E 014°41'0 0.0
2016-May-19 08:33N 55°06' E 014°41'0 0.0
2016-May-19 07:33N 55°06' E 014°41'0 0.2
2016-May-19 06:33N 55°06' E 014°41'6 6.4
2016-May-19 05:34N 55°04' E 014°30'3 3.2
2016-May-19 04:33N 55°06' E 014°26'1110.9
2016-May-19 03:33N 55°08' E 014°07'1010.4
2016-May-19 02:33N 55°10' E 013°49'1110.3
2016-May-19 01:32N 55°11' E 013°31'1010.0
2016-May-19 00:32N 55°13' E 013°14'1010.3
2016-May-18 23:34N 55°15' E 012°56'1110.9
2016-May-18 22:33N 55°18' E 012°38'1010.3
2016-May-18 21:33N 55°28' E 012°41'9 9.4
2016-May-18 20:33N 55°38' E 012°42'3 3.1
2016-May-18 19:31N 55°41' E 012°39'0 0.0
2016-May-18 18:31N 55°41' E 012°39'0 0.0
2016-May-18 17:31N 55°41' E 012°39'0 0.0
2016-May-18 16:31N 55°41' E 012°39'0 0.0
2016-May-18 15:31N 55°41' E 012°39'0 0.0
2016-May-18 14:31N 55°41' E 012°39'0 0.0
2016-May-18 13:31N 55°41' E 012°39'0 0.0
2016-May-18 12:31N 55°41' E 012°39'0 0.0
2016-May-18 11:31N 55°41' E 012°39'0 0.0
2016-May-18 10:31N 55°41' E 012°39'0 0.0
2016-May-18 09:31N 55°41' E 012°39'0 0.0
2016-May-18 08:31N 55°41' E 012°39'0 0.0
2016-May-18 07:31N 55°41' E 012°39'0 0.0
2016-May-18 06:31N 55°41' E 012°39'0 0.0
2016-May-18 05:31N 55°41' E 012°39'0 0.0
2016-May-18 04:31N 55°41' E 012°39'0 0.0
2016-May-18 03:31N 55°41' E 012°39'0 0.0
2016-May-18 02:31N 55°41' E 012°39'0 0.0
2016-May-18 01:31N 55°41' E 012°39'0 0.0
2016-May-18 00:34N 55°41' E 012°39'0 0.0
2016-May-17 23:33N 55°41' E 012°39'0 0.0
2016-May-17 22:33N 55°41' E 012°39'0 0.0
2016-May-17 21:33N 55°41' E 012°39'0 0.0
2016-May-17 20:33N 55°41' E 012°39'0 0.0
2016-May-17 19:33N 55°41' E 012°39'0 0.0
2016-May-17 18:33N 55°41' E 012°39'0 0.0
2016-May-17 17:33N 55°41' E 012°39'0 0.1
2016-May-17 16:33N 55°41' E 012°39'0 0.0
2016-May-17 15:33N 55°41' E 012°39'0 0.0
2016-May-17 14:33N 55°41' E 012°39'0 0.0
2016-May-17 13:33N 55°41' E 012°39'0 0.0
2016-May-17 12:33N 55°41' E 012°39'0 0.0
2016-May-17 11:33N 55°41' E 012°39'0 0.0
2016-May-17 10:33N 55°41' E 012°39'0 0.0
2016-May-17 09:33N 55°41' E 012°39'0 0.0
2016-May-17 08:33N 55°41' E 012°39'0 0.0
2016-May-17 07:33N 55°41' E 012°39'0 0.0
2016-May-17 06:33N 55°41' E 012°39'0 0.0
2016-May-17 05:33N 55°41' E 012°39'3 2.8
2016-May-17 04:33N 55°43' E 012°39'8 8.5
2016-May-17 03:33N 55°52' E 012°40'8 7.6
2016-May-17 02:33N 55°59' E 012°38'7 7.2
2016-May-17 01:33N 56°06' E 012°33'8 7.6
2016-May-17 00:33N 56°10' E 012°21'  

Dump ship's entire track history